createdAt,value
2023-02-19T00:00:32.190Z,7.20
2023-02-19T00:03:03.906Z,4.80
2023-02-19T00:05:37.601Z,6.87
2023-02-19T00:08:08.978Z,7.20
2023-02-19T00:10:39.844Z,6.13
2023-02-19T00:13:10.745Z,6.20
2023-02-19T00:15:42.965Z,10.93
2023-02-19T00:18:14.091Z,6.42
2023-02-19T00:20:44.934Z,10.90
2023-02-19T00:23:15.786Z,7.07
2023-02-19T00:25:46.751Z,9.63
2023-02-19T00:28:17.789Z,7.33
2023-02-19T00:30:49.467Z,7.50
2023-02-19T00:33:20.472Z,8.03
2023-02-19T00:35:51.503Z,6.07
2023-02-19T00:38:22.672Z,7.87
2023-02-19T00:40:53.736Z,8.50
2023-02-19T00:43:24.671Z,6.67
2023-02-19T00:45:55.590Z,9.87
2023-02-19T00:48:26.610Z,6.77
2023-02-19T00:50:57.848Z,7.07
2023-02-19T00:53:29.100Z,10.03
2023-02-19T00:56:00.016Z,7.13
2023-02-19T00:58:30.931Z,7.67
2023-02-19T01:01:01.927Z,8.27
2023-02-19T01:03:33.095Z,8.63
2023-02-19T01:06:04.674Z,8.70
2023-02-19T01:08:36.305Z,6.87
2023-02-19T01:11:08.632Z,7.50
2023-02-19T01:13:40.480Z,6.87
2023-02-19T01:16:14.582Z,10.37
2023-02-19T01:18:45.956Z,8.73
2023-02-19T01:21:18.608Z,12.67
2023-02-19T01:23:50.312Z,6.87
2023-02-19T01:26:24.020Z,6.50
2023-02-19T01:28:55.066Z,10.77
2023-02-19T01:31:44.492Z,8.97
2023-02-19T01:34:15.650Z,8.20
2023-02-19T01:36:46.601Z,8.63
2023-02-19T01:39:17.752Z,11.73
2023-02-19T01:41:48.710Z,9.07
2023-02-19T01:44:54.356Z,10.55
2023-02-19T01:47:25.628Z,9.63
2023-02-19T01:49:58.239Z,9.60
2023-02-19T01:52:32.010Z,14.30
2023-02-19T01:55:06.610Z,9.60
2023-02-19T01:57:40.444Z,11.33
2023-02-19T02:00:15.923Z,12.37
2023-02-19T02:02:49.815Z,12.50
2023-02-19T02:05:26.476Z,11.30
2023-02-19T02:08:15.608Z,11.90
2023-02-19T02:10:56.290Z,11.10
2023-02-19T02:13:27.745Z,12.20
2023-02-19T02:16:06.993Z,9.97
2023-02-19T02:18:46.807Z,8.83
2023-02-19T02:21:56.454Z,11.90
2023-02-19T02:25:09.172Z,9.10
2023-02-19T02:27:55.187Z,8.43
2023-02-19T02:30:37.143Z,9.27
2023-02-19T02:33:15.765Z,9.70
2023-02-19T02:35:49.711Z,8.90
2023-02-19T02:38:22.724Z,7.93
2023-02-19T02:40:55.325Z,19.30
2023-02-19T02:43:26.295Z,7.30
2023-02-19T02:45:57.384Z,9.17
2023-02-19T02:48:35.945Z,9.07
2023-02-19T02:51:11.109Z,7.20
2023-02-19T02:54:03.023Z,8.07
2023-02-19T02:56:35.425Z,7.50
2023-02-19T02:59:09.187Z,8.03
2023-02-19T03:04:23.162Z,8.53
2023-02-19T03:06:56.439Z,8.33
2023-02-19T03:09:30.416Z,9.60
2023-02-19T03:12:25.877Z,8.83
2023-02-19T03:15:17.708Z,8.97
2023-02-19T03:18:09.331Z,9.30
2023-02-19T03:20:43.100Z,7.33
2023-02-19T03:23:14.879Z,8.37
2023-02-19T03:26:06.380Z,7.20
2023-02-19T03:28:58.034Z,8.97
2023-02-19T03:31:31.541Z,7.87
2023-02-19T03:34:05.839Z,8.37
2023-02-19T03:36:39.922Z,8.33
2023-02-19T03:39:15.941Z,7.03
2023-02-19T03:41:50.183Z,9.07
2023-02-19T03:44:25.273Z,9.27
2023-02-19T03:47:01.433Z,8.77
2023-02-19T03:49:35.360Z,9.90
2023-02-19T03:52:08.933Z,7.97
2023-02-19T03:55:00.567Z,8.23
2023-02-19T03:57:35.172Z,8.37
2023-02-19T04:00:10.950Z,8.93
2023-02-19T04:02:44.815Z,11.00
2023-02-19T04:05:18.302Z,8.13
2023-02-19T04:07:51.373Z,8.10
2023-02-19T04:10:23.189Z,7.53
2023-02-19T04:12:57.126Z,6.57
2023-02-19T04:15:32.225Z,7.07
2023-02-19T04:18:05.544Z,8.73
2023-02-19T04:20:39.679Z,9.47
2023-02-19T04:23:10.862Z,7.57
2023-02-19T04:25:44.607Z,7.50
2023-02-19T04:28:17.185Z,10.13
2023-02-19T04:30:48.430Z,6.67
2023-02-19T04:33:19.540Z,10.53
2023-02-19T04:35:50.505Z,9.20
2023-02-19T04:38:21.411Z,8.73
2023-02-19T04:40:52.507Z,8.00
2023-02-19T04:43:23.530Z,10.37
2023-02-19T04:45:54.498Z,8.83
2023-02-19T04:48:25.656Z,10.17
2023-02-19T04:50:56.510Z,9.63
2023-02-19T04:53:27.688Z,10.67
2023-02-19T04:55:58.629Z,9.63
2023-02-19T04:58:29.721Z,9.83
2023-02-19T05:01:00.605Z,10.07
2023-02-19T05:03:31.627Z,10.17
2023-02-19T05:06:04.743Z,16.37
2023-02-19T05:08:35.869Z,10.67
2023-02-19T05:11:10.965Z,10.90
2023-02-19T05:13:42.425Z,11.30
2023-02-19T05:16:16.402Z,9.97
2023-02-19T05:18:48.238Z,10.87
2023-02-19T05:21:19.374Z,10.20
2023-02-19T05:23:50.413Z,12.83
2023-02-19T05:26:24.340Z,11.20
2023-02-19T05:28:56.511Z,11.87
2023-02-19T05:31:27.574Z,11.80
2023-02-19T05:33:59.013Z,14.40
2023-02-19T05:36:29.891Z,12.83
2023-02-19T05:39:01.090Z,12.63
2023-02-19T05:41:32.971Z,16.57
2023-02-19T05:44:04.014Z,11.60
2023-02-19T05:46:35.190Z,11.08
2023-02-19T05:49:06.186Z,13.00
2023-02-19T05:51:37.207Z,11.23
2023-02-19T05:54:08.300Z,11.57
2023-02-19T05:56:40.270Z,7.87
2023-02-19T05:59:15.727Z,13.73
2023-02-19T06:02:05.015Z,9.87
2023-02-19T06:04:36.001Z,10.33
2023-02-19T06:07:07.203Z,12.03
2023-02-19T06:09:38.347Z,11.83
2023-02-19T06:12:09.975Z,11.33
2023-02-19T06:14:59.310Z,11.30
2023-02-19T06:17:30.531Z,11.00
2023-02-19T06:20:01.689Z,10.17
2023-02-19T06:22:32.800Z,10.57
2023-02-19T06:25:03.848Z,9.30
2023-02-19T06:27:34.947Z,9.17
2023-02-19T06:30:06.676Z,10.37
2023-02-19T06:32:37.697Z,10.23
2023-02-19T06:35:09.829Z,11.90
2023-02-19T06:37:40.828Z,11.23
2023-02-19T06:40:13.117Z,11.30
2023-02-19T06:42:43.949Z,9.47
2023-02-19T06:45:15.585Z,11.17
2023-02-19T06:47:46.540Z,8.40
2023-02-19T06:50:17.726Z,7.93
2023-02-19T06:52:48.871Z,12.17
2023-02-19T06:55:38.462Z,12.50
2023-02-19T06:58:10.093Z,9.27
2023-02-19T07:00:41.140Z,9.20
2023-02-19T07:03:12.284Z,10.77
2023-02-19T07:05:43.908Z,11.07
2023-02-19T07:08:14.750Z,8.07
2023-02-19T07:10:45.784Z,10.30
2023-02-19T07:13:16.694Z,10.40
2023-02-19T07:15:47.560Z,7.77
2023-02-19T07:18:18.444Z,10.53
2023-02-19T07:20:49.434Z,10.13
2023-02-19T07:23:20.459Z,13.87
2023-02-19T07:25:51.330Z,12.20
2023-02-19T07:28:22.419Z,8.80
2023-02-19T07:30:53.475Z,8.47
2023-02-19T07:33:24.860Z,10.07
2023-02-19T07:35:55.786Z,10.47
2023-02-19T07:38:28.006Z,11.83
2023-02-19T07:41:00.463Z,9.47
2023-02-19T07:43:33.483Z,13.27
2023-02-19T07:46:07.377Z,12.63
2023-02-19T07:48:39.153Z,13.80
2023-02-19T07:51:13.039Z,12.50
2023-02-19T07:53:44.342Z,12.43
2023-02-19T07:56:15.694Z,12.43
2023-02-19T07:58:47.175Z,16.40
2023-02-19T08:03:57.540Z,12.20
2023-02-19T08:06:28.430Z,12.80
2023-02-19T08:08:59.443Z,13.27
2023-02-19T08:14:32.288Z,15.93
2023-02-19T08:17:04.579Z,10.03
2023-02-19T08:19:35.500Z,10.03
2023-02-19T08:22:06.888Z,10.60
2023-02-19T08:24:39.696Z,10.00
2023-02-19T08:27:10.581Z,11.03
2023-02-19T08:29:41.473Z,8.23
2023-02-19T08:32:12.561Z,8.40
2023-02-19T08:34:43.525Z,7.93
2023-02-19T08:37:14.715Z,7.20
2023-02-19T08:39:45.649Z,7.40
2023-02-19T08:42:16.513Z,7.73
2023-02-19T08:44:47.434Z,7.13
2023-02-19T08:47:18.367Z,7.07
2023-02-19T08:49:49.829Z,7.53
2023-02-19T08:52:21.661Z,7.17
2023-02-19T08:54:52.797Z,8.33
2023-02-19T08:57:23.813Z,7.87
2023-02-19T09:00:00.420Z,9.73
2023-02-19T09:02:31.567Z,6.58
2023-02-19T09:05:02.703Z,8.20
2023-02-19T09:07:33.638Z,5.73
2023-02-19T09:10:05.500Z,6.13
2023-02-19T09:12:36.526Z,7.07
2023-02-19T09:15:09.368Z,6.10
2023-02-19T09:17:40.451Z,5.33
2023-02-19T09:20:13.180Z,5.37
2023-02-19T09:22:44.199Z,5.57
2023-02-19T09:25:15.259Z,7.30
2023-02-19T09:27:46.101Z,7.70
2023-02-19T09:30:17.510Z,6.33
2023-02-19T09:32:48.632Z,5.93
2023-02-19T09:35:20.093Z,5.63
2023-02-19T09:37:51.091Z,6.27
2023-02-19T09:40:22.960Z,5.00
2023-02-19T09:42:54.466Z,6.93
2023-02-19T09:45:27.539Z,5.37
2023-02-19T09:48:00.072Z,5.67
2023-02-19T09:50:34.255Z,6.67
2023-02-19T09:53:08.873Z,4.40
2023-02-19T09:55:43.458Z,5.47
2023-02-19T09:58:27.549Z,5.80
2023-02-19T10:01:01.065Z,7.67
2023-02-19T10:03:34.658Z,5.23
2023-02-19T10:06:11.298Z,3.97
2023-02-19T10:09:02.474Z,4.87
2023-02-19T10:11:33.529Z,5.50
2023-02-19T10:16:49.081Z,6.17
2023-02-19T10:19:20.258Z,4.67
2023-02-19T10:24:31.308Z,5.30
2023-02-19T10:27:02.446Z,4.27
2023-02-19T10:29:33.483Z,4.80
2023-02-19T10:32:24.905Z,3.97
2023-02-19T10:37:55.433Z,4.07
2023-02-19T10:40:29.121Z,4.27
2023-02-19T10:43:06.394Z,4.47
2023-02-19T10:45:40.981Z,3.97
2023-02-19T10:51:02.325Z,4.67
2023-02-19T10:53:46.011Z,5.70
2023-02-19T10:56:19.521Z,8.37
2023-02-19T10:58:50.894Z,5.83
2023-02-19T11:04:16.875Z,8.47
2023-02-19T11:06:48.806Z,5.33
2023-02-19T11:09:27.769Z,5.47
2023-02-19T11:11:59.715Z,4.40
2023-02-19T11:14:33.013Z,4.07
2023-02-19T11:17:06.182Z,4.83
2023-02-19T11:19:40.406Z,4.53
2023-02-19T11:25:18.674Z,3.57
2023-02-19T11:27:58.746Z,3.97
2023-02-19T11:30:39.697Z,3.33
2023-02-19T11:33:28.804Z,3.00
2023-02-19T11:39:23.081Z,3.20
2023-02-19T11:42:31.108Z,3.13
2023-02-19T11:45:24.483Z,3.43
2023-02-19T11:51:21.764Z,2.93
2023-02-19T11:53:55.822Z,2.53
2023-02-19T11:56:31.565Z,2.97
2023-02-19T11:59:05.862Z,2.00
2023-02-19T12:01:54.128Z,2.10
2023-02-19T12:04:39.341Z,2.37
2023-02-19T12:07:16.843Z,2.07
2023-02-19T12:09:55.969Z,2.10
2023-02-19T12:12:43.725Z,1.67
2023-02-19T12:15:46.579Z,1.70
2023-02-19T12:19:06.710Z,2.03
2023-02-19T12:21:51.704Z,1.70
2023-02-19T12:24:59.959Z,1.70
2023-02-19T12:27:37.649Z,2.40
2023-02-19T12:30:34.382Z,1.80
2023-02-19T12:33:35.769Z,3.90
2023-02-19T12:38:48.377Z,1.67
2023-02-19T12:41:26.357Z,2.07
2023-02-19T12:44:00.636Z,3.53
2023-02-19T12:46:35.175Z,1.60
2023-02-19T12:49:10.769Z,2.13
2023-02-19T12:51:47.004Z,1.90
2023-02-19T12:54:48.244Z,2.10
2023-02-19T12:57:23.963Z,2.27
2023-02-19T13:02:37.872Z,2.03
2023-02-19T13:05:12.723Z,1.50
2023-02-19T13:07:46.931Z,1.70
2023-02-19T13:10:23.066Z,2.17
2023-02-19T13:12:56.154Z,1.73
2023-02-19T13:15:31.204Z,3.00
2023-02-19T13:18:04.751Z,2.87
2023-02-19T13:20:38.074Z,3.80
2023-02-19T13:23:29.025Z,2.50
2023-02-19T13:28:52.938Z,2.10
2023-02-19T13:31:31.785Z,2.63
2023-02-19T13:34:06.162Z,3.73
2023-02-19T13:39:17.787Z,2.50
2023-02-19T13:41:54.843Z,2.23
2023-02-19T13:44:28.450Z,3.93
2023-02-19T13:46:59.900Z,2.37
2023-02-19T13:49:51.061Z,2.73
2023-02-19T13:52:42.616Z,3.50
2023-02-19T13:55:57.330Z,4.27
2023-02-19T13:59:18.155Z,2.93
2023-02-19T14:02:28.297Z,2.80
2023-02-19T14:05:01.301Z,2.57
2023-02-19T14:07:53.397Z,2.33
2023-02-19T14:11:03.136Z,2.73
2023-02-19T14:14:11.394Z,2.77
2023-02-19T14:17:08.567Z,2.37
2023-02-19T14:19:56.955Z,3.00
2023-02-19T14:22:51.345Z,2.00
2023-02-19T14:25:56.784Z,2.30
2023-02-19T14:28:38.718Z,2.07
2023-02-19T14:31:23.114Z,2.40
2023-02-19T14:33:56.381Z,2.10
2023-02-19T14:36:43.029Z,1.93
2023-02-19T14:39:17.733Z,2.73
2023-02-19T14:41:50.444Z,1.80
2023-02-19T14:44:25.090Z,1.47
2023-02-19T14:47:01.843Z,3.10
2023-02-19T14:52:16.972Z,1.63
2023-02-19T14:54:51.690Z,2.00
2023-02-19T14:57:25.684Z,1.70
2023-02-19T14:59:58.937Z,2.30
2023-02-19T15:02:31.928Z,2.47
2023-02-19T15:05:02.991Z,1.90
2023-02-19T15:07:35.553Z,2.13
2023-02-19T15:10:08.558Z,2.80
2023-02-19T15:12:43.365Z,2.60
2023-02-19T15:15:20.974Z,2.03
2023-02-19T15:17:53.553Z,2.53
2023-02-19T15:20:27.231Z,1.97
2023-02-19T15:23:00.369Z,2.10
2023-02-19T15:25:34.766Z,2.70
2023-02-19T15:28:23.032Z,1.83
2023-02-19T15:30:55.924Z,2.80
2023-02-19T15:33:28.174Z,2.10
2023-02-19T15:36:01.947Z,2.40
2023-02-19T15:38:34.182Z,2.43
2023-02-19T15:41:05.760Z,2.30
2023-02-19T15:43:40.319Z,4.37
2023-02-19T15:46:14.266Z,5.93
2023-02-19T15:48:48.081Z,2.63
2023-02-19T15:51:22.251Z,2.20
2023-02-19T15:53:56.222Z,1.97
2023-02-19T15:56:30.578Z,2.37
2023-02-19T16:01:43.258Z,1.60
2023-02-19T16:04:17.107Z,2.30
2023-02-19T16:06:57.117Z,1.70
2023-02-19T16:09:31.877Z,1.90
2023-02-19T16:12:03.983Z,2.63
2023-02-19T16:14:36.847Z,1.73
2023-02-19T16:17:15.437Z,1.60
2023-02-19T16:19:49.696Z,4.50
2023-02-19T16:22:22.566Z,2.20
2023-02-19T16:24:56.067Z,1.40
2023-02-19T16:27:34.273Z,1.67
2023-02-19T16:30:08.286Z,3.00
2023-02-19T16:32:39.490Z,1.80
2023-02-19T16:35:37.872Z,1.20
2023-02-19T16:41:15.639Z,0.80
2023-02-19T16:43:46.921Z,0.80
2023-02-19T16:46:18.064Z,0.90
2023-02-19T16:48:50.170Z,0.70
2023-02-19T16:51:25.967Z,2.23
2023-02-19T16:53:57.244Z,2.17
2023-02-19T16:56:28.199Z,1.20
2023-02-19T16:58:59.177Z,3.10
2023-02-19T17:01:30.513Z,1.17
2023-02-19T17:04:04.183Z,0.90
2023-02-19T17:06:37.423Z,1.03
2023-02-19T17:09:09.493Z,0.70
2023-02-19T17:11:40.652Z,3.97
2023-02-19T17:14:11.483Z,3.70
2023-02-19T17:16:43.682Z,0.90
2023-02-19T17:19:17.009Z,2.97
2023-02-19T17:21:48.156Z,1.00
2023-02-19T17:24:19.229Z,1.43
2023-02-19T17:26:50.286Z,0.80
2023-02-19T17:29:21.447Z,0.80
2023-02-19T17:31:54.991Z,0.90
2023-02-19T17:34:25.931Z,1.07
2023-02-19T17:36:57.022Z,0.60
2023-02-19T17:39:28.421Z,2.60
2023-02-19T17:42:00.127Z,1.00
2023-02-19T17:44:32.127Z,1.10
2023-02-19T17:47:04.673Z,0.87
2023-02-19T17:49:36.486Z,1.20
2023-02-19T17:52:08.100Z,1.10
2023-02-19T17:54:39.208Z,2.67
2023-02-19T17:57:10.315Z,0.90
2023-02-19T17:59:41.669Z,2.00
2023-02-19T18:02:13.531Z,1.07
2023-02-19T18:04:44.523Z,2.60
2023-02-19T18:07:15.557Z,2.70
2023-02-19T18:09:47.300Z,1.13
2023-02-19T18:12:18.181Z,1.27
2023-02-19T18:14:49.472Z,1.50
2023-02-19T18:17:20.492Z,1.33
2023-02-19T18:19:51.893Z,1.93
2023-02-19T18:25:01.188Z,1.27
2023-02-19T18:27:32.293Z,1.27
2023-02-19T18:30:03.471Z,1.43
2023-02-19T18:32:34.636Z,1.07
2023-02-19T18:35:06.380Z,1.30
2023-02-19T18:37:37.277Z,1.27
2023-02-19T18:40:10.585Z,1.13
2023-02-19T18:42:42.240Z,1.20
2023-02-19T18:45:14.020Z,1.13
2023-02-19T18:47:46.414Z,1.40
2023-02-19T18:50:17.937Z,0.87
2023-02-19T18:52:48.919Z,1.20
2023-02-19T18:55:20.096Z,2.07
2023-02-19T18:57:51.436Z,1.27
2023-02-19T19:00:23.818Z,1.00
2023-02-19T19:02:59.738Z,1.17
2023-02-19T19:05:31.291Z,1.13
2023-02-19T19:08:03.055Z,1.17
2023-02-19T19:10:34.586Z,0.80
2023-02-19T19:13:06.830Z,1.87
2023-02-19T19:15:41.058Z,1.00
2023-02-19T19:18:12.208Z,1.20
2023-02-19T19:20:44.360Z,1.47
2023-02-19T19:23:16.254Z,1.53
2023-02-19T19:25:48.759Z,1.30
2023-02-19T19:28:20.292Z,1.83
2023-02-19T19:30:51.966Z,1.83
2023-02-19T19:33:23.420Z,1.30
2023-02-19T19:35:54.749Z,1.40
2023-02-19T19:38:26.707Z,0.93
2023-02-19T19:40:58.570Z,2.23
2023-02-19T19:43:30.966Z,1.53
2023-02-19T19:46:04.654Z,2.23
2023-02-19T19:48:36.077Z,1.30
2023-02-19T19:51:08.346Z,1.30
2023-02-19T19:53:39.617Z,1.10
2023-02-19T19:56:12.182Z,1.20
2023-02-19T19:58:43.160Z,2.00
2023-02-19T20:01:15.217Z,1.50
2023-02-19T20:03:46.276Z,1.30
2023-02-19T20:06:21.049Z,1.20
2023-02-19T20:08:52.804Z,1.93
2023-02-19T20:11:24.801Z,1.17
2023-02-19T20:13:56.056Z,2.03
2023-02-19T20:16:28.568Z,1.50
2023-02-19T20:19:00.333Z,1.60
2023-02-19T20:21:32.004Z,1.43
2023-02-19T20:24:07.779Z,1.55
2023-02-19T20:26:39.491Z,3.53
2023-02-19T20:29:11.105Z,1.30
2023-02-19T20:31:43.869Z,1.73
2023-02-19T20:34:14.869Z,1.30
2023-02-19T20:36:47.775Z,2.30
2023-02-19T20:39:20.184Z,2.00
2023-02-19T20:41:53.009Z,1.63
2023-02-19T20:44:24.299Z,1.70
2023-02-19T20:46:56.644Z,1.00
2023-02-19T20:49:29.278Z,1.30
2023-02-19T20:52:01.776Z,1.63
2023-02-19T20:54:34.617Z,2.43
2023-02-19T20:57:06.751Z,2.53
2023-02-19T20:59:38.881Z,1.70
2023-02-19T21:02:14.335Z,1.60
2023-02-19T21:04:45.400Z,1.63
2023-02-19T21:07:17.783Z,1.57
2023-02-19T21:09:48.803Z,3.23
2023-02-19T21:12:20.012Z,2.80
2023-02-19T21:14:51.193Z,3.07
2023-02-19T21:17:22.074Z,3.07
2023-02-19T21:19:52.930Z,2.57
2023-02-19T21:22:24.224Z,2.87
2023-02-19T21:24:55.438Z,3.20
2023-02-19T21:27:26.461Z,4.50
2023-02-19T21:29:57.672Z,2.83
2023-02-19T21:32:28.509Z,3.90
2023-02-19T21:34:59.486Z,4.70
2023-02-19T21:37:30.459Z,3.37
2023-02-19T21:40:01.440Z,2.87
2023-02-19T21:42:32.540Z,2.50
2023-02-19T21:45:03.698Z,2.10
2023-02-19T21:47:34.632Z,3.77
2023-02-19T21:50:06.275Z,2.73
2023-02-19T21:52:37.207Z,2.83
2023-02-19T21:55:09.709Z,2.40
2023-02-19T21:57:40.695Z,2.40
2023-02-19T22:00:13.584Z,2.87
2023-02-19T22:02:45.527Z,4.50
2023-02-19T22:05:17.014Z,2.53
2023-02-19T22:07:50.224Z,3.40
2023-02-19T22:10:22.280Z,2.63
2023-02-19T22:12:53.387Z,3.40
2023-02-19T22:15:24.476Z,3.27
2023-02-19T22:17:55.535Z,2.67
2023-02-19T22:20:26.551Z,2.43
2023-02-19T22:22:57.385Z,2.90
2023-02-19T22:25:28.429Z,3.17
2023-02-19T22:28:00.164Z,2.73
2023-02-19T22:30:31.399Z,2.17
2023-02-19T22:33:02.477Z,3.00
2023-02-19T22:35:33.549Z,2.33
2023-02-19T22:38:04.453Z,2.47
2023-02-19T22:40:35.381Z,2.67
2023-02-19T22:43:06.526Z,2.40
2023-02-19T22:45:37.500Z,5.17
2023-02-19T22:48:09.752Z,4.00
2023-02-19T22:50:41.599Z,4.37
2023-02-19T22:53:12.733Z,3.60
2023-02-19T22:55:43.509Z,4.67
2023-02-19T22:58:14.421Z,3.40
2023-02-19T23:00:45.386Z,3.90
2023-02-19T23:03:16.165Z,3.27
2023-02-19T23:05:47.191Z,2.80
2023-02-19T23:08:18.046Z,3.33
2023-02-19T23:10:49.068Z,5.07
2023-02-19T23:13:20.146Z,3.70
2023-02-19T23:15:51.278Z,6.30
2023-02-19T23:18:22.253Z,3.57
2023-02-19T23:20:53.272Z,3.03
2023-02-19T23:23:24.430Z,5.57
2023-02-19T23:25:55.463Z,2.40
2023-02-19T23:28:26.721Z,3.27
2023-02-19T23:30:57.993Z,3.43
2023-02-19T23:33:28.912Z,3.67
2023-02-19T23:35:59.796Z,6.60
2023-02-19T23:38:30.953Z,2.70
2023-02-19T23:41:02.249Z,4.27
2023-02-19T23:43:33.127Z,2.87
2023-02-19T23:46:04.377Z,3.63
2023-02-19T23:48:35.869Z,3.97
2023-02-19T23:51:07.312Z,4.10
2023-02-19T23:53:38.164Z,3.13
2023-02-19T23:56:10.321Z,3.77
2023-02-19T23:58:41.308Z,3.63
